createdAt,value
2022-09-19T00:01:18.992Z,12.80
2022-09-19T00:03:47.716Z,11.33
2022-09-19T00:06:16.196Z,10.93
2022-09-19T00:08:44.175Z,15.47
2022-09-19T00:11:12.306Z,13.63
2022-09-19T00:13:46.320Z,10.50
2022-09-19T00:16:13.818Z,10.77
2022-09-19T00:18:40.394Z,12.53
2022-09-19T00:21:06.881Z,15.67
2022-09-19T00:23:51.679Z,9.33
2022-09-19T00:26:19.873Z,12.27
2022-09-19T00:28:47.294Z,12.43
2022-09-19T00:31:19.144Z,12.23
2022-09-19T00:33:47.460Z,9.37
2022-09-19T00:36:15.133Z,10.27
2022-09-19T00:38:42.086Z,9.37
2022-09-19T00:41:09.324Z,7.90
2022-09-19T00:43:56.753Z,9.27
2022-09-19T00:46:25.096Z,11.97
2022-09-19T00:49:11.996Z,10.63
2022-09-19T00:51:47.404Z,10.93
2022-09-19T00:54:22.016Z,14.87
2022-09-19T00:56:52.321Z,9.70
2022-09-19T00:59:21.034Z,11.50
2022-09-19T01:01:47.807Z,9.33
2022-09-19T01:04:19.651Z,13.87
2022-09-19T01:07:01.371Z,12.93
2022-09-19T01:09:45.118Z,11.50
2022-09-19T01:12:28.148Z,9.97
2022-09-19T01:15:29.753Z,11.53
2022-09-19T01:17:59.004Z,12.20
2022-09-19T01:20:38.439Z,11.60
2022-09-19T01:23:44.798Z,9.43
2022-09-19T01:26:39.079Z,11.57
2022-09-19T01:29:46.106Z,10.30
2022-09-19T01:32:16.209Z,10.67
2022-09-19T01:34:47.687Z,15.33
2022-09-19T01:37:35.335Z,17.50
2022-09-19T01:40:04.958Z,11.57
2022-09-19T01:42:31.513Z,12.83
2022-09-19T01:44:57.951Z,12.77
2022-09-19T01:47:40.202Z,10.20
2022-09-19T01:50:33.015Z,10.13
2022-09-19T01:53:13.845Z,13.73
2022-09-19T01:56:06.714Z,14.87
2022-09-19T01:58:49.349Z,13.50
2022-09-19T02:01:34.774Z,8.43
2022-09-19T02:04:15.655Z,15.57
2022-09-19T02:06:59.993Z,12.63
2022-09-19T02:09:35.964Z,15.23
2022-09-19T02:12:02.850Z,13.80
2022-09-19T02:14:32.623Z,14.77
2022-09-19T02:17:04.636Z,9.77
2022-09-19T02:19:45.024Z,12.23
2022-09-19T02:22:33.881Z,13.23
2022-09-19T02:25:03.612Z,16.33
2022-09-19T02:27:35.979Z,18.90
2022-09-19T02:30:06.368Z,18.93
2022-09-19T02:32:34.434Z,17.57
2022-09-19T02:35:00.943Z,16.97
2022-09-19T02:37:31.616Z,13.27
2022-09-19T02:40:09.964Z,14.77
2022-09-19T02:42:58.756Z,19.30
2022-09-19T02:45:33.132Z,15.40
2022-09-19T02:48:21.724Z,18.73
2022-09-19T02:51:13.010Z,16.17
2022-09-19T02:53:43.870Z,18.60
2022-09-19T02:56:15.178Z,16.60
2022-09-19T02:58:51.990Z,15.37
2022-09-19T03:01:24.068Z,14.30
2022-09-19T03:04:13.384Z,14.60
2022-09-19T03:06:48.921Z,14.83
2022-09-19T03:09:19.099Z,14.60
2022-09-19T03:11:50.642Z,15.30
2022-09-19T03:14:18.691Z,17.73
2022-09-19T03:16:48.364Z,15.37
2022-09-19T03:19:15.113Z,17.60
2022-09-19T03:21:42.815Z,10.27
2022-09-19T03:24:09.673Z,14.80
2022-09-19T03:26:37.359Z,13.67
2022-09-19T03:29:06.723Z,20.37
2022-09-19T03:31:33.401Z,11.03
2022-09-19T03:33:59.894Z,14.60
2022-09-19T03:36:27.378Z,17.37
2022-09-19T03:38:53.917Z,21.40
2022-09-19T03:41:23.137Z,19.00
2022-09-19T03:43:51.027Z,15.93
2022-09-19T03:46:20.761Z,14.10
2022-09-19T03:48:47.718Z,11.13
2022-09-19T03:51:15.382Z,15.53
2022-09-19T03:53:43.829Z,11.53
2022-09-19T03:56:11.753Z,15.10
2022-09-19T03:58:42.031Z,13.30
2022-09-19T04:01:08.949Z,14.03
2022-09-19T04:03:36.898Z,16.23
2022-09-19T04:06:04.242Z,19.33
2022-09-19T04:08:31.094Z,14.90
2022-09-19T04:10:57.564Z,22.50
2022-09-19T04:13:24.173Z,15.73
2022-09-19T04:15:51.564Z,18.70
2022-09-19T04:18:19.332Z,21.73
2022-09-19T04:20:47.164Z,19.10
2022-09-19T04:23:14.993Z,20.33
2022-09-19T04:25:41.449Z,18.93
2022-09-19T04:28:10.255Z,17.73
2022-09-19T04:30:37.949Z,14.77
2022-09-19T04:33:05.661Z,15.67
2022-09-19T04:35:36.367Z,19.33
2022-09-19T04:38:04.155Z,17.60
2022-09-19T04:40:30.770Z,19.23
2022-09-19T04:42:58.660Z,15.50
2022-09-19T04:45:25.167Z,20.20
2022-09-19T04:47:52.041Z,19.33
2022-09-19T04:50:19.808Z,20.03
2022-09-19T04:52:46.436Z,17.30
2022-09-19T04:55:12.897Z,20.57
2022-09-19T04:57:39.592Z,16.07
2022-09-19T05:00:06.791Z,19.97
2022-09-19T05:02:33.677Z,20.43
2022-09-19T05:05:00.314Z,21.83
2022-09-19T05:07:34.320Z,19.60
2022-09-19T05:10:02.585Z,14.47
2022-09-19T05:12:29.810Z,17.43
2022-09-19T05:14:56.735Z,23.10
2022-09-19T05:17:24.547Z,21.57
2022-09-19T05:19:51.047Z,22.90
2022-09-19T05:22:17.904Z,26.80
2022-09-19T05:24:44.447Z,22.13
2022-09-19T05:27:12.631Z,27.20
2022-09-19T05:29:40.512Z,23.33
2022-09-19T05:32:07.162Z,25.50
2022-09-19T05:34:33.743Z,29.13
2022-09-19T05:37:00.165Z,26.93
2022-09-19T05:39:26.633Z,24.77
2022-09-19T05:41:53.145Z,25.07
2022-09-19T05:44:20.092Z,25.50
2022-09-19T05:46:46.771Z,28.53
2022-09-19T05:49:13.233Z,22.37
2022-09-19T05:51:39.679Z,35.00
2022-09-19T05:54:06.669Z,32.63
2022-09-19T05:56:33.225Z,24.30
2022-09-19T05:58:59.658Z,26.60
2022-09-19T06:01:26.247Z,26.27
2022-09-19T06:03:52.760Z,24.37
2022-09-19T06:06:22.236Z,26.63
2022-09-19T06:08:57.074Z,27.70
2022-09-19T06:11:24.045Z,26.13
2022-09-19T06:14:09.287Z,38.90
2022-09-19T06:16:36.956Z,33.40
2022-09-19T06:19:03.566Z,24.30
2022-09-19T06:21:32.193Z,27.03
2022-09-19T06:23:58.812Z,27.17
2022-09-19T06:26:25.988Z,26.93
2022-09-19T06:28:52.770Z,25.57
2022-09-19T06:31:19.346Z,31.30
2022-09-19T06:33:46.089Z,31.13
2022-09-19T06:36:12.866Z,26.33
2022-09-19T06:38:41.770Z,32.07
2022-09-19T06:41:09.437Z,33.90
2022-09-19T06:43:35.900Z,30.87
2022-09-19T06:46:02.656Z,28.00
2022-09-19T06:48:29.188Z,28.37
2022-09-19T06:50:55.599Z,26.97
2022-09-19T06:53:22.063Z,32.83
2022-09-19T06:55:48.936Z,35.93
2022-09-19T06:58:16.429Z,30.33
2022-09-19T07:00:45.739Z,27.17
2022-09-19T07:03:16.183Z,33.57
2022-09-19T07:05:44.001Z,34.07
2022-09-19T07:08:11.452Z,32.60
2022-09-19T07:10:37.989Z,31.77
2022-09-19T07:13:06.096Z,28.27
2022-09-19T07:15:34.513Z,29.10
2022-09-19T07:18:00.944Z,33.90
2022-09-19T07:20:28.786Z,32.00
2022-09-19T07:23:02.225Z,26.57
2022-09-19T07:25:32.649Z,32.73
2022-09-19T07:28:04.381Z,31.70
2022-09-19T07:30:32.739Z,27.97
2022-09-19T07:33:00.671Z,34.40
2022-09-19T07:35:32.636Z,28.33
2022-09-19T07:38:01.394Z,32.33
2022-09-19T07:40:27.989Z,31.30
2022-09-19T07:42:59.671Z,32.87
2022-09-19T07:45:26.264Z,37.07
2022-09-19T07:47:52.903Z,32.87
2022-09-19T07:50:19.698Z,32.33
2022-09-19T07:52:49.151Z,33.07
2022-09-19T07:55:15.855Z,34.17
2022-09-19T07:57:52.174Z,35.27
2022-09-19T08:00:19.643Z,32.83
2022-09-19T08:02:54.660Z,33.90
2022-09-19T08:05:22.315Z,32.23
2022-09-19T08:07:48.919Z,32.73
2022-09-19T08:10:16.960Z,34.07
2022-09-19T08:12:46.780Z,35.87
2022-09-19T08:15:19.509Z,36.40
2022-09-19T08:17:59.822Z,30.80
2022-09-19T08:20:27.431Z,34.20
2022-09-19T08:23:14.820Z,33.07
2022-09-19T08:25:47.311Z,29.77
2022-09-19T08:28:14.905Z,28.57
2022-09-19T08:30:43.286Z,27.73
2022-09-19T08:33:13.080Z,24.73
2022-09-19T08:35:41.112Z,31.70
2022-09-19T08:38:08.815Z,28.57
2022-09-19T08:40:41.041Z,27.50
2022-09-19T08:43:22.649Z,31.53
2022-09-19T08:46:13.743Z,30.60
2022-09-19T08:48:55.074Z,27.43
2022-09-19T08:51:39.313Z,26.83
2022-09-19T08:54:27.292Z,27.73
2022-09-19T08:56:54.059Z,31.77
2022-09-19T08:59:24.280Z,28.93
2022-09-19T09:02:12.920Z,31.90
2022-09-19T09:04:40.907Z,25.77
2022-09-19T09:07:16.120Z,25.80
2022-09-19T09:10:04.221Z,26.50
2022-09-19T09:12:41.707Z,21.40
2022-09-19T09:15:32.859Z,22.20
2022-09-19T09:18:29.396Z,25.50
2022-09-19T09:21:04.307Z,20.60
2022-09-19T09:23:35.941Z,20.07
2022-09-19T09:26:07.402Z,20.37
2022-09-19T09:28:44.066Z,20.80
2022-09-19T09:31:26.213Z,19.13
2022-09-19T09:33:58.152Z,21.93
2022-09-19T09:36:33.128Z,20.30
2022-09-19T09:39:09.657Z,19.37
2022-09-19T09:41:51.452Z,18.17
2022-09-19T09:44:22.034Z,20.40
2022-09-19T09:46:51.338Z,17.47
2022-09-19T09:49:18.918Z,20.23
2022-09-19T09:52:10.248Z,20.93
2022-09-19T09:55:28.025Z,19.43
2022-09-19T09:58:13.987Z,15.53
2022-09-19T10:01:01.735Z,14.77
2022-09-19T10:03:43.927Z,15.87
2022-09-19T10:06:16.352Z,14.57
2022-09-19T10:09:07.457Z,17.13
2022-09-19T10:14:32.891Z,19.27
2022-09-19T10:17:02.542Z,14.03
2022-09-19T10:19:36.850Z,17.53
2022-09-19T10:22:03.763Z,18.17
2022-09-19T10:24:54.248Z,15.97
2022-09-19T10:27:34.222Z,17.73
2022-09-19T10:30:18.059Z,17.43
2022-09-19T10:32:45.373Z,14.77
2022-09-19T10:35:28.213Z,15.13
2022-09-19T10:38:14.734Z,14.87
2022-09-19T10:41:01.121Z,14.73
2022-09-19T10:43:33.161Z,18.27
2022-09-19T10:46:07.576Z,14.83
2022-09-19T10:48:39.676Z,19.73
2022-09-19T10:51:09.256Z,14.67
2022-09-19T10:53:38.132Z,15.80
2022-09-19T10:56:08.862Z,16.13
2022-09-19T10:58:40.873Z,18.07
2022-09-19T11:01:09.627Z,16.90
2022-09-19T11:03:40.473Z,19.43
2022-09-19T11:06:14.567Z,19.10
2022-09-19T11:08:49.495Z,14.87
2022-09-19T11:11:48.732Z,19.37
2022-09-19T11:14:30.204Z,16.50
2022-09-19T11:17:34.964Z,14.30
2022-09-19T11:20:20.162Z,14.43
2022-09-19T11:23:18.121Z,18.37
2022-09-19T11:26:28.822Z,16.10
2022-09-19T11:29:18.628Z,12.10
2022-09-19T11:35:28.594Z,13.20
2022-09-19T11:41:26.744Z,12.13
2022-09-19T11:44:08.380Z,13.70
2022-09-19T11:46:50.516Z,10.53
2022-09-19T11:49:48.349Z,9.97
2022-09-19T11:52:36.972Z,10.03
2022-09-19T11:55:34.262Z,12.40
2022-09-19T11:58:28.917Z,12.57
2022-09-19T12:01:06.673Z,11.67
2022-09-19T12:04:06.901Z,10.97
2022-09-19T12:06:56.715Z,9.80
2022-09-19T12:09:33.805Z,10.00
2022-09-19T12:12:10.136Z,9.30
2022-09-19T12:14:42.955Z,13.17
2022-09-19T12:17:35.394Z,10.30
2022-09-19T12:20:15.746Z,9.43
2022-09-19T12:22:49.065Z,9.97
2022-09-19T12:25:22.110Z,12.27
2022-09-19T12:28:07.255Z,10.80
2022-09-19T12:30:42.215Z,11.47
2022-09-19T12:33:34.651Z,7.50
2022-09-19T12:36:31.405Z,11.83
2022-09-19T12:39:04.156Z,12.87
2022-09-19T12:41:55.415Z,11.77
2022-09-19T12:44:27.177Z,12.37
2022-09-19T12:47:02.728Z,14.87
2022-09-19T12:49:57.497Z,12.97
2022-09-19T12:52:36.803Z,10.97
2022-09-19T12:55:16.609Z,9.27
2022-09-19T12:57:52.154Z,8.63
2022-09-19T13:00:21.845Z,8.47
2022-09-19T13:03:19.085Z,8.67
2022-09-19T13:05:56.934Z,9.03
2022-09-19T13:08:28.665Z,8.70
2022-09-19T13:11:09.775Z,11.57
2022-09-19T13:13:53.139Z,9.73
2022-09-19T13:16:29.667Z,7.33
2022-09-19T13:19:15.357Z,6.53
2022-09-19T13:22:02.446Z,8.80
2022-09-19T13:24:37.970Z,8.77
2022-09-19T13:27:05.739Z,5.17
2022-09-19T13:29:32.564Z,5.87
2022-09-19T13:32:08.134Z,7.70
2022-09-19T13:34:40.373Z,9.93
2022-09-19T13:37:45.425Z,8.43
2022-09-19T13:40:16.931Z,7.67
2022-09-19T13:42:51.325Z,12.17
2022-09-19T13:45:29.984Z,9.30
2022-09-19T13:48:12.442Z,25.67
2022-09-19T13:50:53.959Z,23.77
2022-09-19T13:53:34.504Z,19.27
2022-09-19T13:56:15.979Z,9.93
2022-09-19T13:58:43.571Z,10.43
2022-09-19T14:01:13.562Z,11.90
2022-09-19T14:03:46.649Z,16.63
2022-09-19T14:06:28.634Z,16.93
2022-09-19T14:12:01.960Z,15.47
2022-09-19T14:14:41.934Z,16.97
2022-09-19T14:17:19.397Z,17.67
2022-09-19T14:19:55.434Z,15.60
2022-09-19T14:22:35.802Z,16.70
2022-09-19T14:25:24.825Z,14.03
2022-09-19T14:28:00.450Z,12.93
2022-09-19T14:31:05.864Z,13.27
2022-09-19T14:33:56.117Z,10.07
2022-09-19T14:36:35.431Z,13.87
2022-09-19T14:39:30.548Z,13.30
2022-09-19T14:42:14.275Z,11.27
2022-09-19T14:45:03.700Z,14.57
2022-09-19T14:47:36.737Z,11.67
2022-09-19T14:50:11.264Z,17.30
2022-09-19T14:52:41.300Z,10.03
2022-09-19T14:55:14.524Z,14.23
2022-09-19T14:57:48.090Z,14.40
2022-09-19T15:00:32.287Z,16.17
2022-09-19T15:03:01.042Z,14.23
2022-09-19T15:05:33.031Z,12.80
2022-09-19T15:08:30.089Z,14.53
2022-09-19T15:11:04.485Z,16.30
2022-09-19T15:13:42.643Z,10.90
2022-09-19T15:16:10.892Z,15.00
2022-09-19T15:18:41.884Z,18.90
2022-09-19T15:21:10.138Z,12.77
2022-09-19T15:23:37.892Z,13.37
2022-09-19T15:26:15.464Z,17.20
2022-09-19T15:28:43.028Z,16.60
2022-09-19T15:31:12.320Z,12.50
2022-09-19T15:33:39.326Z,10.60
2022-09-19T15:36:07.504Z,11.80
2022-09-19T15:38:35.740Z,17.60
2022-09-19T15:41:05.413Z,17.03
2022-09-19T15:43:33.565Z,11.87
2022-09-19T15:46:03.179Z,14.50
2022-09-19T15:48:35.234Z,15.93
2022-09-19T15:51:04.394Z,13.97
2022-09-19T15:53:37.756Z,13.60
2022-09-19T15:56:07.935Z,16.07
2022-09-19T15:58:45.282Z,13.10
2022-09-19T16:01:16.376Z,12.60
2022-09-19T16:03:49.499Z,15.53
2022-09-19T16:06:43.122Z,17.47
2022-09-19T16:09:11.494Z,13.37
2022-09-19T16:11:44.447Z,16.97
2022-09-19T16:14:27.890Z,19.40
2022-09-19T16:16:55.883Z,17.47
2022-09-19T16:19:41.285Z,11.77
2022-09-19T16:22:08.059Z,14.27
2022-09-19T16:24:41.763Z,13.83
2022-09-19T16:27:08.441Z,19.30
2022-09-19T16:29:37.302Z,21.23
2022-09-19T16:32:05.048Z,18.83
2022-09-19T16:34:38.095Z,16.73
2022-09-19T16:37:05.719Z,18.23
2022-09-19T16:39:34.912Z,12.93
2022-09-19T16:42:17.750Z,20.80
2022-09-19T16:45:09.154Z,26.20
2022-09-19T16:47:35.964Z,19.00
2022-09-19T16:50:02.573Z,16.23
2022-09-19T16:52:33.094Z,13.40
2022-09-19T16:55:01.968Z,13.13
2022-09-19T16:57:28.897Z,15.67
2022-09-19T16:59:56.563Z,19.37
2022-09-19T17:02:28.655Z,13.90
2022-09-19T17:04:56.428Z,20.27
2022-09-19T17:07:23.168Z,16.77
2022-09-19T17:09:50.385Z,15.30
2022-09-19T17:12:19.398Z,14.63
2022-09-19T17:14:46.396Z,18.33
2022-09-19T17:17:13.698Z,16.20
2022-09-19T17:19:44.350Z,18.97
2022-09-19T17:22:13.449Z,18.57
2022-09-19T17:24:40.779Z,19.27
2022-09-19T17:27:08.006Z,19.07
2022-09-19T17:29:34.906Z,20.63
2022-09-19T17:32:02.407Z,20.30
2022-09-19T17:34:29.043Z,18.23
2022-09-19T17:36:55.497Z,17.40
2022-09-19T17:39:21.928Z,17.17
2022-09-19T17:41:50.081Z,23.20
2022-09-19T17:44:16.810Z,23.47
2022-09-19T17:46:43.904Z,20.60
2022-09-19T17:49:10.815Z,18.90
2022-09-19T17:51:37.596Z,23.53
2022-09-19T17:54:04.676Z,20.33
2022-09-19T17:56:31.255Z,22.33
2022-09-19T17:59:03.074Z,23.40
2022-09-19T18:01:50.578Z,22.87
2022-09-19T18:04:20.197Z,20.60
2022-09-19T18:06:47.316Z,22.57
2022-09-19T18:09:15.204Z,21.63
2022-09-19T18:11:42.165Z,19.70
2022-09-19T18:14:11.597Z,20.40
2022-09-19T18:16:41.551Z,22.23
2022-09-19T18:19:09.692Z,20.43
2022-09-19T18:21:40.702Z,21.10
2022-09-19T18:24:08.674Z,19.47
2022-09-19T18:26:35.148Z,26.27
2022-09-19T18:29:03.109Z,22.77
2022-09-19T18:31:29.846Z,19.13
2022-09-19T18:33:56.302Z,27.10
2022-09-19T18:36:24.519Z,22.90
2022-09-19T18:38:54.900Z,24.17
2022-09-19T18:41:23.082Z,23.90
2022-09-19T18:43:50.121Z,22.43
2022-09-19T18:46:21.934Z,21.10
2022-09-19T18:48:49.989Z,27.30
2022-09-19T18:51:19.357Z,23.40
2022-09-19T18:53:48.171Z,25.37
2022-09-19T18:56:14.695Z,27.30
2022-09-19T18:58:41.674Z,29.07
2022-09-19T19:01:10.107Z,30.47
2022-09-19T19:03:41.256Z,25.57
2022-09-19T19:06:18.708Z,29.90
2022-09-19T19:08:49.774Z,27.00
2022-09-19T19:11:19.186Z,26.93
2022-09-19T19:13:45.722Z,26.67
2022-09-19T19:16:17.439Z,31.57
2022-09-19T19:18:50.878Z,27.10
2022-09-19T19:21:28.716Z,27.93
2022-09-19T19:23:57.050Z,31.40
2022-09-19T19:26:25.471Z,26.13
2022-09-19T19:28:52.662Z,26.97
2022-09-19T19:31:20.254Z,27.70
2022-09-19T19:33:47.956Z,31.43
2022-09-19T19:36:16.892Z,30.23
2022-09-19T19:38:48.576Z,29.33
2022-09-19T19:41:26.016Z,28.93
2022-09-19T19:43:53.602Z,29.73
2022-09-19T19:46:22.209Z,27.10
2022-09-19T19:48:50.781Z,28.73
2022-09-19T19:51:21.409Z,29.60
2022-09-19T19:53:49.132Z,26.90
2022-09-19T19:56:23.585Z,26.87
2022-09-19T19:58:53.591Z,33.57
2022-09-19T20:01:22.448Z,27.30
2022-09-19T20:03:50.661Z,30.17
2022-09-19T20:06:27.260Z,31.90
2022-09-19T20:08:54.896Z,30.87
2022-09-19T20:11:21.762Z,33.27
2022-09-19T20:13:57.351Z,35.27
2022-09-19T20:16:25.731Z,32.20
2022-09-19T20:18:53.570Z,34.00
2022-09-19T20:21:22.409Z,36.63
2022-09-19T20:23:49.712Z,40.20
2022-09-19T20:26:20.901Z,40.50
2022-09-19T20:28:51.945Z,40.93
2022-09-19T20:31:20.878Z,42.53
2022-09-19T20:33:48.168Z,41.07
2022-09-19T20:36:15.968Z,43.43
2022-09-19T20:38:43.059Z,45.87
2022-09-19T20:41:11.669Z,40.50
2022-09-19T20:43:38.309Z,39.20
2022-09-19T20:46:14.510Z,40.80
2022-09-19T20:48:41.745Z,39.13
2022-09-19T20:51:09.642Z,43.10
2022-09-19T20:53:38.141Z,42.03
2022-09-19T20:56:06.933Z,44.67
2022-09-19T20:58:33.660Z,41.40
2022-09-19T21:01:05.252Z,45.30
2022-09-19T21:03:32.723Z,42.70
2022-09-19T21:05:59.569Z,42.60
2022-09-19T21:08:27.848Z,43.97
2022-09-19T21:11:05.384Z,39.37
2022-09-19T21:13:36.520Z,41.33
2022-09-19T21:16:16.853Z,39.73
2022-09-19T21:18:47.168Z,38.97
2022-09-19T21:21:17.478Z,44.87
2022-09-19T21:23:44.237Z,40.87
2022-09-19T21:26:11.893Z,49.27
2022-09-19T21:28:42.238Z,40.40
2022-09-19T21:31:14.083Z,46.07
2022-09-19T21:33:40.795Z,42.90
2022-09-19T21:36:07.691Z,36.03
2022-09-19T21:38:34.661Z,42.83
2022-09-19T21:41:05.813Z,42.27
2022-09-19T21:43:35.921Z,38.03
2022-09-19T21:46:14.253Z,43.10
2022-09-19T21:48:42.356Z,42.80
2022-09-19T21:51:13.329Z,44.50
2022-09-19T21:53:40.065Z,39.00
2022-09-19T21:56:06.845Z,39.53
2022-09-19T21:58:34.289Z,39.17
2022-09-19T22:01:00.874Z,40.77
2022-09-19T22:03:28.803Z,38.10
2022-09-19T22:05:59.898Z,42.97
2022-09-19T22:08:27.339Z,42.70
2022-09-19T22:11:01.680Z,38.53
2022-09-19T22:13:28.808Z,39.57
2022-09-19T22:15:59.709Z,40.17
2022-09-19T22:18:27.241Z,40.90
2022-09-19T22:20:54.290Z,44.13
2022-09-19T22:23:20.964Z,41.70
2022-09-19T22:25:47.712Z,45.90
2022-09-19T22:28:14.909Z,44.70
2022-09-19T22:30:41.611Z,39.77
2022-09-19T22:33:08.293Z,41.27
2022-09-19T22:35:34.766Z,45.33
2022-09-19T22:38:01.169Z,42.57
2022-09-19T22:40:31.464Z,39.33
2022-09-19T22:42:59.496Z,42.77
2022-09-19T22:45:25.921Z,45.80
2022-09-19T22:47:52.339Z,42.67
2022-09-19T22:50:19.270Z,37.87
2022-09-19T22:52:46.893Z,40.60
2022-09-19T22:55:13.436Z,38.70
2022-09-19T22:57:39.894Z,40.67
2022-09-19T23:00:06.757Z,44.53
2022-09-19T23:02:33.447Z,43.83
2022-09-19T23:04:59.959Z,42.97
2022-09-19T23:07:26.374Z,36.83
2022-09-19T23:09:53.076Z,45.27
2022-09-19T23:12:19.485Z,38.63
2022-09-19T23:14:45.926Z,39.30
2022-09-19T23:17:12.443Z,43.23
2022-09-19T23:19:38.844Z,43.40
2022-09-19T23:22:05.373Z,44.60
2022-09-19T23:24:32.079Z,42.57
2022-09-19T23:26:59.655Z,41.23
2022-09-19T23:29:26.432Z,44.63
2022-09-19T23:31:53.386Z,39.00
2022-09-19T23:34:20.980Z,40.33
2022-09-19T23:36:48.782Z,45.80
2022-09-19T23:39:15.295Z,52.20
2022-09-19T23:41:42.035Z,38.30
2022-09-19T23:44:08.639Z,45.40
2022-09-19T23:46:35.605Z,41.73
2022-09-19T23:49:03.231Z,42.63
2022-09-19T23:51:30.403Z,45.67
2022-09-19T23:53:58.619Z,42.67
2022-09-19T23:56:27.178Z,38.03
2022-09-19T23:58:53.865Z,50.47
